Time;durP1;ratioP1;P1;durP2;ratioP2;P2;SDS_P1;SDS_P2;PMS_P1;PMS_P2;Temp;Humidity;BMP_temperature;BMP_pressure;BME280_temperature;BME280_humidity;BME280_pressure;Samples;Min_cycle;Max_cycle;Signal;HPM_P1;HPM_P2
2021/10/13 00:00:13;;;;;;;1.15;0.65;;;10.90;73.40;;;;;;6275752;22;20000;-64
2021/10/13 00:02:39;;;;;;;5.13;0.50;;;10.90;73.40;;;;;;6275767;22;20000;-64
2021/10/13 00:05:06;;;;;;;0.80;0.60;;;10.80;73.40;;;;;;6275865;22;20305;-65
2021/10/13 00:07:32;;;;;;;7.00;0.70;;;10.80;73.40;;;;;;6275818;22;20054;-64
2021/10/13 00:09:58;;;;;;;1.23;0.60;;;10.90;73.30;;;;;;6273825;22;20050;-64
2021/10/13 00:12:25;;;;;;;0.52;0.45;;;10.80;73.30;;;;;;6273954;22;20030;-64
2021/10/13 00:14:52;;;;;;;1.80;0.80;;;10.80;73.40;;;;;;6273375;22;20066;-64
2021/10/13 00:17:18;;;;;;;1.38;0.80;;;10.80;73.10;;;;;;6275626;22;20265;-64
2021/10/13 00:19:44;;;;;;;0.70;0.70;;;10.80;72.80;;;;;;6275406;22;20253;-64
2021/10/13 00:22:10;;;;;;;1.20;0.40;;;10.70;72.80;;;;;;6275578;22;20089;-64
2021/10/13 00:24:36;;;;;;;1.77;0.50;;;10.70;73.00;;;;;;6275704;22;20068;-64
2021/10/13 00:27:02;;;;;;;0.50;0.50;;;10.70;73.00;;;;;;6275589;22;20027;-64
2021/10/13 00:29:28;;;;;;;0.73;0.43;;;10.70;73.00;;;;;;6275351;22;20000;-65
2021/10/13 00:31:54;;;;;;;2.58;0.30;;;10.70;73.30;;;;;;6275536;22;20496;-63
2021/10/13 00:34:19;;;;;;;0.22;0.20;;;10.70;73.40;;;;;;6275377;22;20007;-64
2021/10/13 00:36:45;;;;;;;7.05;0.40;;;10.80;73.40;;;;;;6274974;22;20456;-63
2021/10/13 00:39:11;;;;;;;0.32;0.20;;;10.80;73.40;;;;;;6272224;22;20004;-64
2021/10/13 00:41:37;;;;;;;1.10;0.43;;;10.80;73.30;;;;;;6272584;22;20003;-63
2021/10/13 00:44:03;;;;;;;0.60;0.30;;;10.80;73.30;;;;;;6274737;22;20020;-64
2021/10/13 00:46:29;;;;;;;2.53;0.50;;;10.80;73.20;;;;;;6273088;22;20388;-63
2021/10/13 00:48:55;;;;;;;1.05;0.65;;;10.70;72.50;;;;;;6275898;22;20028;-64
2021/10/13 00:51:21;;;;;;;0.82;0.30;;;10.70;72.00;;;;;;6276753;22;20071;-64
2021/10/13 00:53:47;;;;;;;1.23;0.50;;;10.70;71.80;;;;;;6276253;22;20003;-64
2021/10/13 00:56:13;;;;;;;4.43;0.63;;;10.60;71.70;;;;;;6276614;22;20004;-64
2021/10/13 00:58:39;;;;;;;2.40;0.55;;;10.60;71.70;;;;;;6276485;22;20000;-64
2021/10/13 01:01:29;;;;;;;0.73;0.50;;;10.50;71.50;;;;;;6276279;22;20014;-64
2021/10/13 01:04:17;;;;;;;1.23;0.68;;;10.50;71.10;;;;;;6276457;22;20079;-64
2021/10/13 01:07:17;;;;;;;1.40;0.35;;;10.40;70.90;;;;;;6276255;22;19994;-62
2021/10/13 01:09:58;;;;;;;1.77;0.65;;;10.40;70.60;;;;;;6276441;22;20082;-64
2021/10/13 01:12:53;;;;;;;0.60;0.30;;;10.40;70.50;;;;;;6275803;22;20008;-63
2021/10/13 01:15:32;;;;;;;0.57;0.35;;;10.40;70.30;;;;;;6276286;22;20076;-65
2021/10/13 01:18:00;;;;;;;1.20;0.40;;;10.30;70.20;;;;;;6276187;22;19996;-64
2021/10/13 01:20:45;;;;;;;0.85;0.40;;;10.30;70.50;;;;;;6276259;22;20339;-64
2021/10/13 01:23:36;;;;;;;1.77;0.40;;;10.30;70.70;;;;;;6276031;22;20486;-64
2021/10/13 01:26:30;;;;;;;0.30;0.30;;;10.30;70.80;;;;;;6274507;22;20007;-64
2021/10/13 01:29:01;;;;;;;2.00;0.40;;;10.20;71.60;;;;;;6275952;22;20518;-63
2021/10/13 01:31:35;;;;;;;0.70;0.30;;;10.20;70.70;;;;;;6276163;22;20000;-64
2021/10/13 01:34:15;;;;;;;1.45;0.55;;;10.20;70.80;;;;;;6274492;22;20443;-63
2021/10/13 01:36:46;;;;;;;1.13;0.38;;;10.10;70.90;;;;;;6275632;22;20061;-63
2021/10/13 01:39:13;;;;;;;0.98;0.50;;;10.10;70.80;;;;;;6276002;22;20007;-64
2021/10/13 01:41:42;;;;;;;0.25;0.20;;;10.10;70.70;;;;;;6275450;22;19996;-63
2021/10/13 01:44:11;;;;;;;0.40;0.30;;;10.10;70.60;;;;;;6275855;22;19995;-63
2021/10/13 01:46:38;;;;;;;3.40;0.55;;;10.10;70.60;;;;;;6275473;22;20422;-63
2021/10/13 01:49:05;;;;;;;2.58;0.50;;;10.10;70.70;;;;;;6275371;22;20423;-63
2021/10/13 01:51:32;;;;;;;0.80;0.43;;;10.00;70.80;;;;;;6275768;22;20491;-63
2021/10/13 01:54:00;;;;;;;0.38;0.35;;;10.00;71.00;;;;;;6275741;22;20007;-64
2021/10/13 01:56:27;;;;;;;0.32;0.30;;;10.00;71.20;;;;;;6275545;22;20501;-64
2021/10/13 01:58:57;;;;;;;0.50;0.38;;;10.00;71.40;;;;;;6275608;22;20050;-64
2021/10/13 02:01:26;;;;;;;0.38;0.30;;;10.10;71.50;;;;;;6275049;22;20014;-65
2021/10/13 02:03:53;;;;;;;0.68;0.60;;;10.10;71.30;;;;;;6275654;22;20109;-64
2021/10/13 02:06:22;;;;;;;0.20;0.20;;;10.10;71.20;;;;;;6275724;22;20082;-64
2021/10/13 02:08:51;;;;;;;0.47;0.40;;;10.10;71.00;;;;;;6276066;22;20004;-65
2021/10/13 02:11:20;;;;;;;0.30;0.25;;;10.10;70.80;;;;;;6274758;22;20023;-65
2021/10/13 02:13:47;;;;;;;2.08;0.85;;;10.10;70.60;;;;;;6275679;22;20074;-64
2021/10/13 02:16:14;;;;;;;0.40;0.30;;;10.00;70.50;;;;;;6273673;22;20011;-65
2021/10/13 02:18:44;;;;;;;0.40;0.40;;;10.00;70.50;;;;;;6274087;22;20099;-65
2021/10/13 02:21:10;;;;;;;0.40;0.40;;;10.00;70.60;;;;;;6275693;22;20031;-65
2021/10/13 02:23:37;;;;;;;1.38;0.40;;;10.00;70.70;;;;;;6275563;22;20348;-65
2021/10/13 02:26:09;;;;;;;0.45;0.32;;;10.00;71.00;;;;;;6275299;22;20015;-64
2021/10/13 02:28:42;;;;;;;0.95;0.45;;;10.00;71.20;;;;;;6275486;22;19999;-65
2021/10/13 02:31:08;;;;;;;0.50;0.47;;;10.00;71.30;;;;;;6275266;22;20019;-64
2021/10/13 02:33:38;;;;;;;0.75;0.55;;;10.00;71.40;;;;;;6275303;22;20003;-65
2021/10/13 02:36:04;;;;;;;0.43;0.40;;;10.00;71.40;;;;;;6273887;22;19999;-65
2021/10/13 02:38:30;;;;;;;1.05;0.60;;;10.00;71.20;;;;;;6274490;22;20000;-65
2021/10/13 02:40:57;;;;;;;1.38;0.77;;;10.00;71.00;;;;;;6274827;22;19996;-64
2021/10/13 02:43:22;;;;;;;3.47;0.73;;;10.00;70.90;;;;;;6274736;22;20327;-65
2021/10/13 02:45:59;;;;;;;4.47;0.85;;;10.00;70.70;;;;;;6272858;22;20003;-65
2021/10/13 02:48:29;;;;;;;0.90;0.50;;;10.00;70.50;;;;;;6275164;22;20113;-65
2021/10/13 02:51:30;;;;;;;0.90;0.50;;;9.90;70.30;;;;;;6275240;22;20022;-65
2021/10/13 02:54:12;;;;;;;1.10;0.52;;;9.90;70.30;;;;;;6274932;22;20451;-64
2021/10/13 02:56:40;;;;;;;5.05;0.50;;;9.80;70.20;;;;;;6275167;22;19999;-64
2021/10/13 02:59:29;;;;;;;3.15;0.50;;;9.80;70.30;;;;;;6274960;22;19999;-65
2021/10/13 03:01:59;;;;;;;0.80;0.50;;;9.70;70.30;;;;;;6252934;22;20462;-64
2021/10/13 03:04:30;;;;;;;0.38;0.38;;;9.70;70.40;;;;;;6274916;22;20379;-64
2021/10/13 03:07:14;;;;;;;0.68;0.65;;;9.70;70.50;;;;;;6274755;22;19996;-64
2021/10/13 03:09:45;;;;;;;0.60;0.50;;;9.60;70.60;;;;;;6274948;22;20004;-65
2021/10/13 03:12:12;;;;;;;0.60;0.60;;;9.70;70.80;;;;;;6274408;22;20069;-64
2021/10/13 03:14:40;;;;;;;0.93;0.65;;;9.60;70.80;;;;;;6275039;22;20007;-64
2021/10/13 03:17:07;;;;;;;2.03;0.90;;;9.60;70.90;;;;;;6275052;22;20023;-65
2021/10/13 03:19:38;;;;;;;2.08;0.68;;;9.70;71.20;;;;;;6274767;22;19999;-64
2021/10/13 03:22:05;;;;;;;5.03;0.70;;;9.60;71.40;;;;;;6274867;22;20085;-63
2021/10/13 03:24:31;;;;;;;1.17;0.65;;;9.70;71.60;;;;;;6274644;22;20088;-64
2021/10/13 03:26:56;;;;;;;7.90;1.42;;;9.70;71.60;;;;;;6274863;22;20408;-64
2021/10/13 03:29:22;;;;;;;2.22;0.82;;;9.70;71.70;;;;;;6274777;22;19995;-64
2021/10/13 03:31:48;;;;;;;1.98;1.15;;;9.80;71.70;;;;;;6272968;22;20021;-64
2021/10/13 03:34:15;;;;;;;1.77;0.70;;;9.80;71.70;;;;;;6274531;22;20027;-64
2021/10/13 03:36:44;;;;;;;1.75;0.65;;;9.80;71.70;;;;;;6274646;22;20476;-64
2021/10/13 03:39:11;;;;;;;1.63;0.80;;;9.80;71.70;;;;;;6274319;22;20038;-65
2021/10/13 03:41:37;;;;;;;1.80;0.90;;;9.80;71.70;;;;;;6274285;22;20077;-64
2021/10/13 03:44:03;;;;;;;2.95;0.88;;;9.90;71.70;;;;;;6274618;22;20000;-64
2021/10/13 03:46:30;;;;;;;1.13;0.88;;;9.90;71.60;;;;;;6274313;22;20022;-64
2021/10/13 03:48:56;;;;;;;2.33;1.10;;;9.90;71.40;;;;;;6274736;22;20094;-64
2021/10/13 03:51:22;;;;;;;1.23;1.08;;;9.90;71.10;;;;;;6274453;22;20010;-64
2021/10/13 03:53:49;;;;;;;7.72;1.23;;;9.90;71.10;;;;;;6274397;22;20031;-64
2021/10/13 03:56:15;;;;;;;1.55;0.90;;;9.90;71.10;;;;;;6274644;22;20109;-64
2021/10/13 03:58:41;;;;;;;0.95;0.82;;;9.90;71.10;;;;;;6274491;22;20010;-64
2021/10/13 04:01:07;;;;;;;6.20;1.00;;;9.90;71.20;;;;;;6274197;22;20003;-65
2021/10/13 04:03:33;;;;;;;2.40;0.90;;;9.90;71.10;;;;;;6274518;22;20071;-64
2021/10/13 04:05:59;;;;;;;2.13;1.05;;;9.90;71.00;;;;;;6274378;22;20019;-64
2021/10/13 04:08:25;;;;;;;5.07;1.05;;;9.90;71.00;;;;;;6274161;22;20031;-64
2021/10/13 04:10:51;;;;;;;1.52;1.02;;;9.90;71.00;;;;;;6274136;22;20007;-64
2021/10/13 04:13:17;;;;;;;1.73;1.05;;;9.90;71.00;;;;;;6274108;22;20008;-65
2021/10/13 04:15:43;;;;;;;1.55;1.05;;;9.90;70.90;;;;;;6274417;22;20000;-65
2021/10/13 04:18:09;;;;;;;2.95;1.30;;;9.90;70.90;;;;;;6274103;22;20423;-64
2021/10/13 04:20:36;;;;;;;3.65;1.73;;;9.90;70.80;;;;;;6274643;22;20004;-64
2021/10/13 04:23:02;;;;;;;2.60;1.38;;;9.90;71.60;;;;;;6274322;22;20034;-64
2021/10/13 04:25:27;;;;;;;1.92;1.40;;;9.80;70.80;;;;;;6276391;22;20016;-63
2021/10/13 04:27:53;;;;;;;1.98;1.17;;;9.90;71.00;;;;;;6276395;22;20000;-64
2021/10/13 04:30:19;;;;;;;2.40;1.30;;;9.80;70.90;;;;;;6276216;22;20000;-64
2021/10/13 04:32:45;;;;;;;3.90;1.42;;;9.80;71.00;;;;;;6274672;22;20067;-64
2021/10/13 04:35:12;;;;;;;5.22;1.25;;;9.80;71.00;;;;;;6273874;22;20008;-64
2021/10/13 04:37:38;;;;;;;1.98;1.33;;;9.70;71.00;;;;;;6273810;22;20033;-64
2021/10/13 04:40:06;;;;;;;1.35;1.23;;;9.70;71.00;;;;;;6276153;22;20003;-64
2021/10/13 04:42:33;;;;;;;1.73;1.13;;;9.70;71.10;;;;;;6274845;22;20011;-64
2021/10/13 04:44:59;;;;;;;6.43;1.38;;;9.70;71.20;;;;;;6276046;22;20331;-64
2021/10/13 04:47:25;;;;;;;1.67;1.23;;;9.60;71.20;;;;;;6276274;22;20416;-64
2021/10/13 04:49:51;;;;;;;2.75;1.30;;;9.60;71.20;;;;;;6276209;22;20002;-64
2021/10/13 04:52:17;;;;;;;2.88;1.50;;;9.60;71.30;;;;;;6275964;22;20008;-64
2021/10/13 04:54:43;;;;;;;2.60;2.00;;;9.60;71.30;;;;;;6276166;22;20332;-64
2021/10/13 04:57:08;;;;;;;2.80;2.08;;;9.60;71.10;;;;;;6276064;22;20003;-64
2021/10/13 04:59:34;;;;;;;3.88;1.85;;;9.60;71.00;;;;;;6275964;22;20012;-64
2021/10/13 05:02:00;;;;;;;2.95;2.25;;;9.50;71.00;;;;;;6275541;22;20304;-64
2021/10/13 05:04:26;;;;;;;7.60;2.08;;;9.50;71.20;;;;;;6276124;22;20050;-65
2021/10/13 05:06:51;;;;;;;3.25;2.63;;;9.50;71.40;;;;;;6276045;22;19992;-64
2021/10/13 05:09:17;;;;;;;3.63;2.67;;;9.50;71.50;;;;;;6275984;22;20007;-64
2021/10/13 05:11:43;;;;;;;3.75;2.33;;;9.50;71.50;;;;;;6275638;22;20110;-64
2021/10/13 05:14:10;;;;;;;3.40;2.47;;;9.60;71.50;;;;;;6276283;22;20356;-64
2021/10/13 05:16:36;;;;;;;5.55;2.13;;;9.60;71.40;;;;;;6274130;22;20088;-63
2021/10/13 05:19:02;;;;;;;7.97;2.65;;;9.60;71.20;;;;;;6273871;22;20000;-64
2021/10/13 05:21:28;;;;;;;3.67;2.90;;;9.70;71.20;;;;;;6275411;22;20043;-65
2021/10/13 05:23:53;;;;;;;4.43;2.70;;;9.70;71.10;;;;;;6275322;22;20022;-64
2021/10/13 05:26:20;;;;;;;3.45;2.53;;;9.70;70.90;;;;;;6275767;22;19999;-64
2021/10/13 05:28:45;;;;;;;6.25;2.40;;;9.70;70.80;;;;;;6275739;22;20015;-64
2021/10/13 05:31:11;;;;;;;6.30;2.08;;;9.70;70.50;;;;;;6275443;22;20015;-65
2021/10/13 05:33:37;;;;;;;5.03;2.65;;;9.70;70.50;;;;;;6275340;22;20007;-64
2021/10/13 05:36:03;;;;;;;2.90;2.03;;;9.80;70.50;;;;;;6275537;22;20424;-65
2021/10/13 05:38:29;;;;;;;3.97;2.30;;;9.80;70.50;;;;;;6275876;22;20003;-65
2021/10/13 05:40:55;;;;;;;3.03;1.80;;;9.80;70.50;;;;;;6275263;22;20023;-66
2021/10/13 05:43:22;;;;;;;2.78;1.95;;;9.80;70.40;;;;;;6275814;22;20006;-65
2021/10/13 05:45:48;;;;;;;4.45;1.90;;;9.80;70.10;;;;;;6274888;22;20071;-65
2021/10/13 05:48:15;;;;;;;3.58;1.80;;;9.80;70.00;;;;;;6275055;22;20023;-64
2021/10/13 05:50:41;;;;;;;2.92;2.13;;;9.80;69.90;;;;;;6274851;22;20067;-64
2021/10/13 05:53:06;;;;;;;3.15;2.08;;;9.80;69.80;;;;;;6273248;22;20026;-65
2021/10/13 05:55:32;;;;;;;5.97;2.58;;;9.80;69.80;;;;;;6275230;22;19999;-64
2021/10/13 05:58:02;;;;;;;3.58;2.08;;;9.70;69.80;;;;;;6275423;22;20011;-65
2021/10/13 06:00:28;;;;;;;3.63;2.30;;;9.70;70.00;;;;;;6275261;22;20007;-65
2021/10/13 06:02:54;;;;;;;3.95;2.55;;;9.70;70.00;;;;;;6275309;22;20000;-66
2021/10/13 06:05:20;;;;;;;6.05;2.78;;;9.70;70.00;;;;;;6275603;22;20004;-65
2021/10/13 06:07:46;;;;;;;4.32;2.45;;;9.70;69.90;;;;;;6275369;22;20004;-64
2021/10/13 06:10:11;;;;;;;4.72;2.78;;;9.70;69.80;;;;;;6275471;22;20416;-64
2021/10/13 06:12:37;;;;;;;4.50;2.20;;;9.70;69.80;;;;;;6275066;22;20030;-65
2021/10/13 06:15:04;;;;;;;6.57;2.60;;;9.60;69.80;;;;;;6274949;22;20004;-65
2021/10/13 06:17:34;;;;;;;2.95;2.22;;;9.60;69.80;;;;;;6274598;22;20046;-65
2021/10/13 06:20:00;;;;;;;3.85;2.63;;;9.60;69.80;;;;;;6275319;22;20004;-65
2021/10/13 06:22:26;;;;;;;8.20;3.05;;;9.60;69.90;;;;;;6275374;22;20103;-65
2021/10/13 06:24:52;;;;;;;5.50;2.90;;;9.50;69.80;;;;;;6275377;22;20042;-65
2021/10/13 06:27:18;;;;;;;3.75;2.70;;;9.50;69.80;;;;;;6274547;22;20003;-65
2021/10/13 06:29:44;;;;;;;3.00;2.45;;;9.40;69.80;;;;;;6274885;22;20002;-65
2021/10/13 06:32:09;;;;;;;3.78;2.55;;;9.40;70.00;;;;;;6274848;22;19999;-65
2021/10/13 06:34:35;;;;;;;4.28;2.55;;;9.50;70.10;;;;;;6274867;22;20004;-64
2021/10/13 06:37:01;;;;;;;5.85;3.40;;;9.40;70.30;;;;;;6274975;22;20000;-65
2021/10/13 06:39:27;;;;;;;7.10;3.10;;;9.50;70.70;;;;;;6275234;22;20006;-64
2021/10/13 06:41:52;;;;;;;4.75;3.08;;;9.50;70.90;;;;;;6274856;22;20004;-66
2021/10/13 06:44:18;;;;;;;4.13;3.00;;;9.50;70.80;;;;;;6275355;22;19999;-64
2021/10/13 06:46:44;;;;;;;7.68;3.47;;;9.50;70.70;;;;;;6274793;22;20297;-64
2021/10/13 06:49:10;;;;;;;8.07;2.88;;;9.50;70.70;;;;;;6275111;22;20010;-64
2021/10/13 06:51:36;;;;;;;9.60;3.25;;;9.60;71.00;;;;;;6275499;22;19999;-65
2021/10/13 06:54:02;;;;;;;8.35;3.60;;;9.60;71.20;;;;;;6276361;22;20031;-65
2021/10/13 06:56:29;;;;;;;6.45;3.13;;;9.60;71.50;;;;;;6276437;22;20079;-64
2021/10/13 06:58:55;;;;;;;4.07;3.20;;;9.70;71.80;;;;;;6275224;22;20008;-65
2021/10/13 07:01:20;;;;;;;4.28;3.53;;;9.80;71.90;;;;;;6275725;22;20493;-65
2021/10/13 07:03:46;;;;;;;8.32;3.83;;;9.90;71.80;;;;;;6275680;22;20000;-64
2021/10/13 07:06:12;;;;;;;4.22;3.53;;;10.00;71.80;;;;;;6275882;22;20000;-65
2021/10/13 07:08:38;;;;;;;8.70;4.40;;;10.10;71.90;;;;;;6275762;22;20031;-65
2021/10/13 07:11:05;;;;;;;8.73;3.80;;;10.20;71.70;;;;;;6275908;22;19996;-65
2021/10/13 07:13:32;;;;;;;5.38;4.03;;;10.30;71.40;;;;;;6275466;22;20109;-64
2021/10/13 07:15:57;;;;;;;7.28;4.80;;;10.40;71.40;;;;;;6275974;22;20049;-65
2021/10/13 07:18:23;;;;;;;12.52;4.53;;;10.50;71.00;;;;;;6275781;22;20025;-65
2021/10/13 07:20:49;;;;;;;9.32;5.63;;;10.60;70.80;;;;;;6275603;22;20000;-66
2021/10/13 07:23:15;;;;;;;7.38;6.00;;;10.70;70.50;;;;;;6275665;22;20003;-65
2021/10/13 07:25:41;;;;;;;9.18;6.60;;;10.70;69.80;;;;;;6275890;22;20006;-65
2021/10/13 07:28:07;;;;;;;11.10;8.18;;;10.80;69.60;;;;;;6275636;22;20019;-65
2021/10/13 07:30:34;;;;;;;8.10;7.03;;;10.80;69.40;;;;;;6275988;22;20006;-65
2021/10/13 07:33:00;;;;;;;40.40;9.50;;;10.90;69.30;;;;;;6275950;22;20331;-65
2021/10/13 07:35:29;;;;;;;38.50;9.75;;;11.00;69.20;;;;;;6275827;22;20004;-66
2021/10/13 07:37:56;;;;;;;35.08;9.15;;;11.00;68.80;;;;;;6276090;22;20008;-65
2021/10/13 07:40:22;;;;;;;19.08;8.10;;;11.10;68.50;;;;;;6276052;22;20030;-65
2021/10/13 07:42:49;;;;;;;20.45;9.38;;;11.10;68.40;;;;;;6275946;22;20427;-66
2021/10/13 07:45:15;;;;;;;23.33;10.20;;;11.10;68.20;;;;;;6275890;22;20133;-66
2021/10/13 07:47:41;;;;;;;94.60;12.88;;;11.20;67.90;;;;;;6275808;22;20000;-66
2021/10/13 07:50:08;;;;;;;46.38;9.90;;;11.20;68.10;;;;;;6275518;22;20026;-65
2021/10/13 07:52:34;;;;;;;167.90;18.48;;;11.30;68.10;;;;;;6273505;22;20006;-65
2021/10/13 07:55:00;;;;;;;18.45;9.05;;;11.30;67.90;;;;;;6275493;22;20011;-64
2021/10/13 07:57:26;;;;;;;27.77;9.35;;;11.40;67.80;;;;;;6275554;22;20007;-66
2021/10/13 07:59:51;;;;;;;21.00;9.35;;;11.50;67.70;;;;;;6273549;22;20067;-65
2021/10/13 08:02:17;;;;;;;15.25;8.50;;;11.50;67.30;;;;;;6275245;22;20331;-65
2021/10/13 08:04:43;;;;;;;12.38;8.73;;;11.60;67.80;;;;;;6275303;22;20058;-64
2021/10/13 08:07:10;;;;;;;12.25;9.52;;;11.70;67.40;;;;;;6273670;22;19996;-64
2021/10/13 08:09:35;;;;;;;28.38;9.65;;;11.80;67.40;;;;;;6273739;22;20003;-65
2021/10/13 08:12:01;;;;;;;20.73;9.10;;;11.80;67.40;;;;;;6275380;22;20078;-64
2021/10/13 08:14:28;;;;;;;10.93;8.50;;;11.90;67.10;;;;;;6275842;22;20373;-65
2021/10/13 08:16:57;;;;;;;11.63;9.18;;;11.90;66.40;;;;;;6275775;22;20075;-64
2021/10/13 08:19:23;;;;;;;13.88;9.35;;;12.00;66.10;;;;;;6275890;22;20004;-64
2021/10/13 08:21:49;;;;;;;12.13;9.07;;;12.00;66.30;;;;;;6275830;22;20098;-65
2021/10/13 08:24:15;;;;;;;13.20;8.93;;;12.00;65.90;;;;;;6275873;22;20000;-65
2021/10/13 08:26:41;;;;;;;16.65;9.27;;;12.10;65.90;;;;;;6275521;22;20382;-64
2021/10/13 08:29:07;;;;;;;12.75;9.13;;;12.10;65.60;;;;;;6275135;22;20042;-65
2021/10/13 08:31:34;;;;;;;9.55;7.85;;;12.20;65.20;;;;;;6273714;22;20007;-65
2021/10/13 08:33:59;;;;;;;11.07;8.10;;;12.20;64.80;;;;;;6275364;22;20374;-66
2021/10/13 08:36:25;;;;;;;10.43;8.27;;;12.20;64.60;;;;;;6275527;22;20053;-65
2021/10/13 08:38:51;;;;;;;9.15;7.40;;;12.20;64.30;;;;;;6275466;22;20082;-64
2021/10/13 08:41:17;;;;;;;11.45;8.48;;;12.20;64.80;;;;;;6275418;22;20327;-64
2021/10/13 08:43:44;;;;;;;11.88;8.48;;;12.20;65.00;;;;;;6275517;22;20000;-64
2021/10/13 08:46:11;;;;;;;17.33;9.68;;;12.30;64.80;;;;;;6275489;22;20423;-64
2021/10/13 08:48:37;;;;;;;11.98;9.82;;;12.20;64.40;;;;;;6275412;22;20424;-64
2021/10/13 08:51:02;;;;;;;11.98;9.73;;;12.30;63.90;;;;;;6274899;22;20003;-65
2021/10/13 08:53:28;;;;;;;12.77;10.57;;;12.30;63.60;;;;;;6275452;22;20015;-66
2021/10/13 08:55:55;;;;;;;12.93;9.88;;;12.30;63.80;;;;;;6275145;22;20000;-65
2021/10/13 08:58:23;;;;;;;10.93;9.38;;;12.30;63.80;;;;;;6275293;22;20004;-66
2021/10/13 09:01:00;;;;;;;13.50;10.15;;;12.40;64.20;;;;;;6275227;22;19996;-66
2021/10/13 09:03:33;;;;;;;12.18;9.50;;;12.40;64.20;;;;;;6273644;22;20011;-66
2021/10/13 09:06:14;;;;;;;13.03;10.03;;;12.50;63.70;;;;;;6275314;22;20023;-65
2021/10/13 09:08:58;;;;;;;11.32;9.75;;;12.50;63.60;;;;;;6275594;22;20006;-66
2021/10/13 09:11:44;;;;;;;9.30;8.32;;;12.60;63.20;;;;;;6276988;22;19999;-66
2021/10/13 09:14:16;;;;;;;15.27;9.20;;;12.70;63.10;;;;;;6277258;22;20330;-66
2021/10/13 09:16:55;;;;;;;17.13;8.63;;;12.70;62.80;;;;;;6277269;22;20010;-66
2021/10/13 09:19:35;;;;;;;10.43;8.43;;;12.80;62.40;;;;;;6277481;22;20434;-66
2021/10/13 09:22:04;;;;;;;11.52;8.65;;;12.80;62.10;;;;;;6277061;22;20010;-68
2021/10/13 09:24:33;;;;;;;18.30;9.15;;;12.80;61.90;;;;;;6277214;22;20373;-67
2021/10/13 09:27:19;;;;;;;10.63;9.23;;;12.80;61.80;;;;;;6276733;22;19988;-66
2021/10/13 09:29:45;;;;;;;10.93;9.20;;;12.80;61.30;;;;;;6277030;22;20003;-66
2021/10/13 09:32:11;;;;;;;20.02;8.25;;;12.90;61.00;;;;;;6276816;22;20434;-66
2021/10/13 09:34:48;;;;;;;30.02;9.48;;;12.90;61.90;;;;;;6276763;22;20077;-67
2021/10/13 09:37:13;;;;;;;19.63;8.85;;;12.90;61.30;;;;;;6275966;22;19996;-66
2021/10/13 09:39:39;;;;;;;20.52;8.77;;;12.90;61.10;;;;;;6275692;22;20038;-66
2021/10/13 09:42:12;;;;;;;18.50;8.55;;;12.90;61.10;;;;;;6275965;22;19999;-66
2021/10/13 09:44:56;;;;;;;11.57;8.05;;;12.90;62.00;;;;;;6276164;22;19999;-66
2021/10/13 09:47:34;;;;;;;32.65;9.50;;;12.90;62.10;;;;;;6276043;22;20067;-67
2021/10/13 09:50:00;;;;;;;66.43;11.63;;;13.00;62.70;;;;;;6275858;22;20000;-66
2021/10/13 09:52:31;;;;;;;63.10;12.70;;;13.00;62.20;;;;;;6275814;22;20007;-66
2021/10/13 09:55:35;;;;;;;100.35;12.07;;;13.00;62.10;;;;;;6276113;22;20487;-66
2021/10/13 09:58:01;;;;;;;43.97;10.32;;;13.00;61.40;;;;;;6182027;23;20005;-66
2021/10/13 10:00:27;;;;;;;41.47;10.70;;;13.00;61.50;;;;;;6182102;23;20005;-66
2021/10/13 10:02:58;;;;;;;32.38;10.80;;;12.90;61.80;;;;;;6182268;23;20005;-66
2021/10/13 10:05:36;;;;;;;44.17;11.32;;;13.00;61.80;;;;;;6182956;23;20035;-66
2021/10/13 10:08:10;;;;;;;128.77;14.88;;;13.00;61.90;;;;;;6183269;23;20078;-66
2021/10/13 10:10:58;;;;;;;20.92;9.48;;;13.00;60.40;;;;;;6182952;23;20008;-66
2021/10/13 10:13:42;;;;;;;17.63;9.52;;;13.00;60.40;;;;;;6182634;23;20021;-66
2021/10/13 10:16:11;;;;;;;;;;;13.00;59.80;;;;;;6183522;23;20183;-66
2021/10/13 10:18:39;;;;;;;12.35;8.00;;;13.10;61.10;;;;;;6183191;23;19908;-66
2021/10/13 10:21:27;;;;;;;43.30;10.90;;;13.10;61.50;;;;;;6182735;23;20464;-65
2021/10/13 10:23:55;;;;;;;14.30;8.57;;;13.20;61.40;;;;;;6183018;23;20001;-65
2021/10/13 10:26:26;;;;;;;44.17;12.20;;;13.30;61.50;;;;;;6183012;23;20479;-65
2021/10/13 10:28:52;;;;;;;30.23;10.63;;;13.40;60.90;;;;;;6182542;23;20331;-66
2021/10/13 10:31:29;;;;;;;53.13;12.32;;;13.50;61.10;;;;;;6182218;23;20012;-65
2021/10/13 10:34:07;;;;;;;32.85;11.80;;;13.60;60.20;;;;;;6216625;22;19999;-65
2021/10/13 10:36:39;;;;;;;66.78;12.15;;;13.80;59.80;;;;;;6275963;22;20003;-67
2021/10/13 10:39:13;;;;;;;46.20;11.05;;;14.00;60.00;;;;;;6275914;22;20392;-65
2021/10/13 10:41:49;;;;;;;31.25;11.45;;;14.20;59.40;;;;;;6274370;22;20004;-65
2021/10/13 10:44:27;;;;;;;20.25;9.15;;;14.20;58.00;;;;;;6276071;22;19996;-65
2021/10/13 10:46:59;;;;;;;26.02;10.00;;;14.30;58.30;;;;;;6276181;22;20003;-65
2021/10/13 10:49:46;;;;;;;15.65;7.97;;;14.40;58.10;;;;;;6276314;22;19996;-66
2021/10/13 10:52:22;;;;;;;21.02;7.75;;;14.60;57.90;;;;;;6274527;22;20007;-66
2021/10/13 10:54:53;;;;;;;23.30;8.15;;;14.70;57.70;;;;;;6274089;22;20003;-66
2021/10/13 10:57:33;;;;;;;33.72;10.93;;;14.80;57.30;;;;;;6275827;22;20080;-66
2021/10/13 11:00:01;;;;;;;19.75;10.05;;;14.90;56.30;;;;;;6275938;22;20331;-66
2021/10/13 11:02:26;;;;;;;36.90;9.38;;;14.90;55.80;;;;;;6275403;22;20010;-66
2021/10/13 11:05:06;;;;;;;12.20;7.65;;;15.00;56.30;;;;;;6275616;22;20427;-67
2021/10/13 11:07:33;;;;;;;13.45;8.98;;;15.20;56.80;;;;;;6276127;22;20024;-68
2021/10/13 11:10:04;;;;;;;8.88;6.93;;;15.30;56.20;;;;;;6276098;22;20011;-68
2021/10/13 11:12:50;;;;;;;8.43;6.75;;;15.50;56.00;;;;;;6275747;22;20082;-68
2021/10/13 11:15:18;;;;;;;13.52;7.15;;;15.50;55.60;;;;;;6275775;22;20443;-68
2021/10/13 11:17:44;;;;;;;7.85;6.43;;;15.50;53.90;;;;;;6275813;22;20052;-69
2021/10/13 11:20:13;;;;;;;8.80;6.80;;;15.50;54.50;;;;;;6275778;22;20007;-68
2021/10/13 11:22:39;;;;;;;9.48;7.25;;;15.60;54.60;;;;;;6275727;22;20332;-69
2021/10/13 11:25:17;;;;;;;7.80;6.43;;;15.50;55.30;;;;;;6275839;22;20305;-68
2021/10/13 11:27:55;;;;;;;10.27;7.07;;;15.60;55.30;;;;;;6275956;22;19999;-68
2021/10/13 11:30:21;;;;;;;10.05;7.32;;;15.60;55.10;;;;;;6276108;22;20000;-68
2021/10/13 11:32:47;;;;;;;10.90;6.57;;;15.60;55.50;;;;;;6275676;22;20054;-68
2021/10/13 11:35:17;;;;;;;9.60;5.72;;;15.70;54.40;;;;;;6275912;22;20010;-69
2021/10/13 11:37:48;;;;;;;10.32;6.40;;;15.70;54.90;;;;;;6276126;22;20070;-68
2021/10/13 11:40:15;;;;;;;7.65;6.43;;;15.70;55.10;;;;;;6275812;22;20490;-68
2021/10/13 11:42:40;;;;;;;9.77;6.60;;;15.70;54.70;;;;;;6275840;22;20308;-68
2021/10/13 11:45:13;;;;;;;10.27;7.22;;;15.70;54.20;;;;;;6275678;22;20002;-68
2021/10/13 11:47:39;;;;;;;8.55;6.28;;;15.60;51.90;;;;;;6275607;22;20007;-69
2021/10/13 11:50:06;;;;;;;12.52;6.28;;;15.60;52.10;;;;;;6275628;22;20124;-68
2021/10/13 11:52:35;;;;;;;6.50;5.53;;;15.50;52.30;;;;;;6275757;22;20010;-69
2021/10/13 11:55:10;;;;;;;16.10;6.70;;;15.40;52.90;;;;;;6275609;22;20000;-69
2021/10/13 11:57:39;;;;;;;7.60;6.25;;;15.50;53.80;;;;;;6275854;22;20327;-69
2021/10/13 12:00:19;;;;;;;7.13;5.45;;;15.60;53.30;;;;;;6275535;22;20061;-69
2021/10/13 12:03:05;;;;;;;18.33;8.13;;;15.60;53.50;;;;;;6275432;22;20003;-69
2021/10/13 12:05:42;;;;;;;10.95;6.05;;;15.70;53.20;;;;;;6275317;22;20029;-69
2021/10/13 12:08:25;;;;;;;10.73;5.45;;;15.70;52.40;;;;;;6272103;22;20008;-69
2021/10/13 12:10:52;;;;;;;6.78;5.28;;;15.80;52.90;;;;;;6273898;22;20308;-69
2021/10/13 12:13:24;;;;;;;10.73;5.05;;;15.80;53.00;;;;;;6271917;22;20026;-69
2021/10/13 12:15:50;;;;;;;10.90;4.93;;;15.80;53.00;;;;;;6274446;22;20423;-69
2021/10/13 12:18:21;;;;;;;5.40;4.90;;;15.90;53.60;;;;;;6272883;22;20008;-70
2021/10/13 12:20:50;;;;;;;6.32;5.32;;;15.90;54.00;;;;;;6274391;22;20003;-70
2021/10/13 12:23:20;;;;;;;8.30;5.32;;;16.00;53.70;;;;;;6272925;22;20000;-71
2021/10/13 12:25:46;;;;;;;7.63;4.40;;;16.00;52.20;;;;;;6272868;22;20010;-70
2021/10/13 12:28:22;;;;;;;7.00;4.35;;;16.10;53.10;;;;;;6274717;22;20351;-72
2021/10/13 12:31:04;;;;;;;7.55;4.65;;;16.10;52.30;;;;;;6275429;22;19996;-73
2021/10/13 12:33:46;;;;;;;7.05;4.35;;;16.10;50.60;;;;;;6275874;22;20065;-74
2021/10/13 12:36:19;;;;;;;5.03;4.28;;;16.10;50.90;;;;;;6275465;22;20007;-74
2021/10/13 12:38:49;;;;;;;6.97;4.65;;;16.10;51.90;;;;;;6277095;22;20023;-74
2021/10/13 12:41:16;;;;;;;7.10;4.10;;;16.10;51.70;;;;;;6275901;22;19999;-74
2021/10/13 12:43:48;;;;;;;7.68;4.38;;;16.20;50.70;;;;;;6275699;22;19995;-74
2021/10/13 12:46:23;;;;;;;7.43;4.00;;;16.10;51.40;;;;;;6277642;22;20054;-74
2021/10/13 12:48:49;;;;;;;6.03;4.20;;;16.20;52.50;;;;;;6277417;22;20075;-74
2021/10/13 12:51:16;;;;;;;5.65;3.88;;;16.30;52.00;;;;;;6275954;22;20377;-74
2021/10/13 12:53:46;;;;;;;6.88;4.00;;;16.30;53.20;;;;;;6276025;22;20026;-74
2021/10/13 12:56:13;;;;;;;4.88;3.58;;;16.30;52.50;;;;;;6277343;22;19995;-74